Time;durP1;ratioP1;P1;durP2;ratioP2;P2;SDS_P1;SDS_P2;PMS_P1;PMS_P2;Temp;Humidity;BMP_temperature;BMP_pressure;BME280_temperature;BME280_humidity;BME280_pressure;Samples;Min_cycle;Max_cycle;Signal;HPM_P1;HPM_P2
2023/05/26 00:01:18;;;;;;;4.63;3.70;;;;;;;;;;4923225;29;20469;-75
2023/05/26 00:03:48;;;;;;;3.53;3.22;;;;;;;;;;4940742;29;20056;-75
2023/05/26 00:06:16;;;;;;;4.30;3.90;;;;;;;;;;4923160;29;20075;-75
2023/05/26 00:08:43;;;;;;;4.18;3.83;;;;;;;;;;4920693;29;20139;-75
2023/05/26 00:11:11;;;;;;;4.10;3.80;;;;;;;;;;4924838;29;20071;-75
2023/05/26 00:13:38;;;;;;;4.05;3.70;;;;;;;;;;4927285;29;20123;-75
2023/05/26 00:16:06;;;;;;;3.97;3.67;;;;;;;;;;4923143;29;20599;-75
2023/05/26 00:18:33;;;;;;;4.47;4.07;;;;;;;;;;4926297;29;20050;-75
2023/05/26 00:21:01;;;;;;;4.20;3.80;;;;;;;;;;4919331;29;20047;-75
2023/05/26 00:23:28;;;;;;;4.13;3.80;;;;;;;;;;4923824;29;20093;-75
2023/05/26 00:25:56;;;;;;;4.40;4.00;;;;;;;;;;4924471;29;20159;-75
2023/05/26 00:28:23;;;;;;;6.78;3.58;;;;;;;;;;4925935;29;20043;-75
2023/05/26 00:30:51;;;;;;;4.10;3.78;;;;;;;;;;4919335;29;20083;-75
2023/05/26 00:33:18;;;;;;;3.83;3.53;;;;;;;;;;4922668;29;20048;-75
2023/05/26 00:35:45;;;;;;;4.38;3.97;;;;;;;;;;4923191;29;21205;-75
2023/05/26 00:38:13;;;;;;;3.50;3.20;;;;;;;;;;4925828;29;20044;-75
2023/05/26 00:40:41;;;;;;;3.95;3.65;;;;;;;;;;4943748;28;20492;-75
2023/05/26 00:43:09;;;;;;;3.78;3.45;;;;;;;;;;4926576;29;20103;-75
2023/05/26 00:45:36;;;;;;;3.97;3.67;;;;;;;;;;4921946;29;20744;-75
2023/05/26 00:48:05;;;;;;;4.43;3.80;;;;;;;;;;4922269;29;20158;-75
2023/05/26 00:50:34;;;;;;;3.85;3.40;;;;;;;;;;4921254;29;20486;-75
2023/05/26 00:53:01;;;;;;;3.88;3.40;;;;;;;;;;4920614;29;20051;-75
2023/05/26 00:55:29;;;;;;;3.83;3.53;;;;;;;;;;4921936;29;20070;-75
2023/05/26 00:57:57;;;;;;;3.50;3.20;;;;;;;;;;4932549;28;20422;-75
2023/05/26 01:00:26;;;;;;;3.35;3.15;;;;;;;;;;4925066;28;20147;-75
2023/05/26 01:02:56;;;;;;;3.45;2.90;;;;;;;;;;4925815;29;20040;-75
2023/05/26 01:05:24;;;;;;;3.42;3.17;;;;;;;;;;4920598;29;20050;-75
2023/05/26 01:07:53;;;;;;;7.22;3.42;;;;;;;;;;4923337;29;20040;-75
2023/05/26 01:10:21;;;;;;;3.53;3.22;;;;;;;;;;4902145;29;20438;-75
2023/05/26 01:12:58;;;;;;;3.08;2.88;;;;;;;;;;4932349;29;20054;-75
2023/05/26 01:15:49;;;;;;;3.20;3.00;;;;;;;;;;4924631;29;20075;-75
2023/05/26 01:18:40;;;;;;;3.92;3.50;;;;;;;;;;4920595;29;20048;-75
2023/05/26 01:21:09;;;;;;;3.22;2.95;;;;;;;;;;4916769;29;20107;-75
2023/05/26 01:23:43;;;;;;;3.65;3.35;;;;;;;;;;4921882;29;20128;-75
2023/05/26 01:26:21;;;;;;;2.95;2.75;;;;;;;;;;4924494;29;20051;-75
2023/05/26 01:28:52;;;;;;;3.38;3.08;;;;;;;;;;4919963;29;21577;-75
2023/05/26 01:31:20;;;;;;;3.10;2.90;;;;;;;;;;4922040;29;20035;-75
2023/05/26 01:33:47;;;;;;;3.85;3.47;;;;;;;;;;4922767;29;20086;-75
2023/05/26 01:36:15;;;;;;;3.60;3.30;;;;;;;;;;4921710;29;20046;-75
2023/05/26 01:38:42;;;;;;;3.47;3.22;;;;;;;;;;4923231;29;20055;-75
2023/05/26 01:41:19;;;;;;;3.10;2.90;;;;;;;;;;4933780;28;20055;-75
2023/05/26 01:43:51;;;;;;;3.50;3.30;;;;;;;;;;4917475;29;20536;-75
2023/05/26 01:46:26;;;;;;;2.90;2.70;;;;;;;;;;4924106;29;20083;-75
2023/05/26 01:48:56;;;;;;;3.38;3.08;;;;;;;;;;4924345;29;20051;-75
2023/05/26 01:51:25;;;;;;;4.50;3.53;;;;;;;;;;4921967;29;20158;-75
2023/05/26 01:53:55;;;;;;;3.58;3.28;;;;;;;;;;4920567;29;20134;-75
2023/05/26 01:56:26;;;;;;;3.20;3.00;;;;;;;;;;4922505;29;20043;-75
2023/05/26 01:58:53;;;;;;;3.50;3.20;;;;;;;;;;4939971;29;20143;-75
2023/05/26 02:01:25;;;;;;;3.78;3.47;;;;;;;;;;4917569;29;20070;-75
2023/05/26 02:03:52;;;;;;;3.83;3.53;;;;;;;;;;4934792;29;20075;-75
2023/05/26 02:06:21;;;;;;;3.80;3.47;;;;;;;;;;4922231;29;20128;-75
2023/05/26 02:08:50;;;;;;;3.85;3.55;;;;;;;;;;4924931;29;20269;-75
2023/05/26 02:11:18;;;;;;;3.80;3.50;;;;;;;;;;4916122;29;20075;-75
2023/05/26 02:13:45;;;;;;;3.70;3.40;;;;;;;;;;4925709;29;20586;-75
2023/05/26 02:16:13;;;;;;;3.00;2.80;;;;;;;;;;4923977;29;20526;-75
2023/05/26 02:18:42;;;;;;;3.28;2.97;;;;;;;;;;4921423;29;20052;-75
2023/05/26 02:21:09;;;;;;;3.25;3.05;;;;;;;;;;4934420;29;20174;-75
2023/05/26 02:23:37;;;;;;;3.38;3.08;;;;;;;;;;4927413;29;20119;-75
2023/05/26 02:26:06;;;;;;;4.05;3.72;;;;;;;;;;4921576;29;20336;-75
2023/05/26 02:28:33;;;;;;;3.28;3.05;;;;;;;;;;4922477;29;20044;-75
2023/05/26 02:31:00;;;;;;;3.70;3.40;;;;;;;;;;4926378;29;20047;-75
2023/05/26 02:33:28;;;;;;;3.97;3.67;;;;;;;;;;4927425;29;20055;-75
2023/05/26 02:35:55;;;;;;;3.00;2.80;;;;;;;;;;4927876;29;20035;-75
2023/05/26 02:38:23;;;;;;;3.20;3.00;;;;;;;;;;4924728;29;20410;-75
2023/05/26 02:40:50;;;;;;;3.38;3.08;;;;;;;;;;4926009;29;20046;-75
2023/05/26 02:43:20;;;;;;;3.40;3.10;;;;;;;;;;4929462;29;20051;-75
2023/05/26 02:45:47;;;;;;;3.20;2.90;;;;;;;;;;4925850;29;20465;-75
2023/05/26 02:48:15;;;;;;;3.70;3.40;;;;;;;;;;4930413;29;20509;-75
2023/05/26 02:50:43;;;;;;;3.83;3.53;;;;;;;;;;4935378;29;20040;-75
2023/05/26 02:53:10;;;;;;;3.35;3.05;;;;;;;;;;4926556;29;20105;-75
2023/05/26 02:55:38;;;;;;;3.83;3.53;;;;;;;;;;4920560;29;20513;-75
2023/05/26 02:58:05;;;;;;;3.30;3.10;;;;;;;;;;4922174;29;20055;-75
2023/05/26 03:00:33;;;;;;;3.50;3.30;;;;;;;;;;4903831;29;20064;-75
2023/05/26 03:03:00;;;;;;;3.70;3.40;;;;;;;;;;4925604;29;20106;-75
2023/05/26 03:05:28;;;;;;;3.10;2.90;;;;;;;;;;4926703;29;20123;-75
2023/05/26 03:07:55;;;;;;;3.00;2.80;;;;;;;;;;4925270;29;20150;-75
2023/05/26 03:10:23;;;;;;;3.50;3.20;;;;;;;;;;4927081;29;20111;-75
2023/05/26 03:12:50;;;;;;;3.50;3.15;;;;;;;;;;4963499;23;20099;-77
2023/05/26 03:15:18;;;;;;;3.72;3.10;;;;;;;;;;4958698;28;20058;-78
2023/05/26 03:17:46;;;;;;;3.40;3.20;;;;;;;;;;4953191;28;20126;-77
2023/05/26 03:20:13;;;;;;;3.28;2.97;;;;;;;;;;4948352;28;20161;-77
2023/05/26 03:22:41;;;;;;;3.50;3.20;;;;;;;;;;4950854;28;20051;-77
2023/05/26 03:25:19;;;;;;;3.55;3.25;;;;;;;;;;4942275;28;20505;-78
2023/05/26 03:27:48;;;;;;;3.97;3.50;;;;;;;;;;4951526;28;20047;-78
2023/05/26 03:30:17;;;;;;;3.45;3.13;;;;;;;;;;4968566;28;20075;-78
2023/05/26 03:32:47;;;;;;;3.80;3.40;;;;;;;;;;4966114;28;20043;-77
2023/05/26 03:35:14;;;;;;;3.42;3.13;;;;;;;;;;4964451;28;20131;-78
2023/05/26 03:37:42;;;;;;;3.85;3.38;;;;;;;;;;4953497;28;20130;-78
2023/05/26 03:40:10;;;;;;;3.35;3.15;;;;;;;;;;4948256;28;20047;-76
2023/05/26 03:42:38;;;;;;;3.72;3.45;;;;;;;;;;4950891;28;20055;-78
2023/05/26 03:45:06;;;;;;;3.90;3.60;;;;;;;;;;4951987;28;20477;-79
2023/05/26 03:47:33;;;;;;;4.07;3.67;;;;;;;;;;4954888;28;20066;-77
2023/05/26 03:50:01;;;;;;;3.60;3.30;;;;;;;;;;4966479;28;20331;-79
2023/05/26 03:52:38;;;;;;;3.47;3.17;;;;;;;;;;4947503;28;20051;-79
2023/05/26 03:55:09;;;;;;;3.80;3.50;;;;;;;;;;4952826;28;20089;-77
2023/05/26 03:57:37;;;;;;;3.28;3.08;;;;;;;;;;4950105;28;20055;-79
2023/05/26 04:00:10;;;;;;;3.67;3.33;;;;;;;;;;4968931;28;20085;-79
2023/05/26 04:02:46;;;;;;;3.55;3.25;;;;;;;;;;4950601;28;20102;-77
2023/05/26 04:05:15;;;;;;;3.42;3.13;;;;;;;;;;4950629;28;20552;-78
2023/05/26 04:07:44;;;;;;;3.30;3.10;;;;;;;;;;4951195;28;20043;-79
2023/05/26 04:10:11;;;;;;;4.22;3.33;;;;;;;;;;4967461;28;20039;-78
2023/05/26 04:12:39;;;;;;;3.38;3.08;;;;;;;;;;4956048;28;20055;-78
2023/05/26 04:15:09;;;;;;;3.70;3.38;;;;;;;;;;4952194;28;20094;-79
2023/05/26 04:17:37;;;;;;;3.45;3.10;;;;;;;;;;4950390;28;20375;-78
2023/05/26 04:20:11;;;;;;;3.50;3.30;;;;;;;;;;4953311;29;20501;-79
2023/05/26 04:22:39;;;;;;;3.33;3.08;;;;;;;;;;4962917;28;20050;-78
2023/05/26 04:25:07;;;;;;;3.38;3.17;;;;;;;;;;4951245;28;20054;-77
2023/05/26 04:27:47;;;;;;;3.15;2.95;;;;;;;;;;4964804;28;20147;-78
2023/05/26 04:30:31;;;;;;;3.80;3.47;;;;;;;;;;4946177;28;20051;-80
2023/05/26 04:33:12;;;;;;;3.97;3.60;;;;;;;;;;4949206;28;20078;-77
2023/05/26 04:35:52;;;;;;;4.35;3.60;;;;;;;;;;4948514;28;20047;-77
2023/05/26 04:38:20;;;;;;;3.92;3.53;;;;;;;;;;4948590;28;20071;-78
2023/05/26 04:40:48;;;;;;;3.90;3.58;;;;;;;;;;4950073;28;20114;-78
2023/05/26 04:43:16;;;;;;;6.18;3.60;;;;;;;;;;4935502;28;20050;-78
2023/05/26 04:45:43;;;;;;;3.80;3.50;;;;;;;;;;4945325;28;20051;-77
2023/05/26 04:48:12;;;;;;;3.65;3.33;;;;;;;;;;4959608;28;20061;-76
2023/05/26 04:50:41;;;;;;;3.72;3.42;;;;;;;;;;4940055;28;20477;-77
2023/05/26 04:53:10;;;;;;;3.40;3.13;;;;;;;;;;4927155;29;20332;-78
2023/05/26 04:55:37;;;;;;;3.70;3.40;;;;;;;;;;4951389;28;20245;-78
2023/05/26 04:58:07;;;;;;;2.95;2.75;;;;;;;;;;4944972;28;20039;-78
2023/05/26 05:00:36;;;;;;;4.05;3.72;;;;;;;;;;4967472;28;20137;-78
2023/05/26 05:03:23;;;;;;;3.42;3.13;;;;;;;;;;4948966;28;20055;-78
2023/05/26 05:06:20;;;;;;;3.05;2.85;;;;;;;;;;4950168;28;20047;-78
2023/05/26 05:08:48;;;;;;;3.80;3.50;;;;;;;;;;4942599;28;20071;-78
2023/05/26 05:11:16;;;;;;;3.75;3.33;;;;;;;;;;4950354;28;20039;-78
2023/05/26 05:13:44;;;;;;;3.70;3.40;;;;;;;;;;4948625;28;20047;-77
2023/05/26 05:16:13;;;;;;;4.43;3.33;;;;;;;;;;4956154;28;20062;-78
2023/05/26 05:18:40;;;;;;;3.95;3.20;;;;;;;;;;4936607;28;20051;-80
2023/05/26 05:21:08;;;;;;;3.75;3.30;;;;;;;;;;4949607;28;20145;-77
2023/05/26 05:23:37;;;;;;;3.70;3.40;;;;;;;;;;4940894;28;20484;-76
2023/05/26 05:26:05;;;;;;;3.83;3.38;;;;;;;;;;4945571;28;20110;-77
2023/05/26 05:28:35;;;;;;;3.85;3.55;;;;;;;;;;4938120;28;20149;-77
2023/05/26 05:31:11;;;;;;;3.55;3.28;;;;;;;;;;4935535;28;20040;-77
2023/05/26 05:33:39;;;;;;;3.80;3.20;;;;;;;;;;4942625;28;20059;-77
2023/05/26 05:36:07;;;;;;;3.80;3.50;;;;;;;;;;4942673;28;20535;-78
2023/05/26 05:38:39;;;;;;;3.80;3.50;;;;;;;;;;4955460;28;20410;-78
2023/05/26 05:41:06;;;;;;;3.78;3.40;;;;;;;;;;4948421;28;20355;-78
2023/05/26 05:43:37;;;;;;;3.70;3.50;;;;;;;;;;4948019;28;20353;-78
2023/05/26 05:46:05;;;;;;;3.80;3.50;;;;;;;;;;4955108;28;20299;-78
2023/05/26 05:48:53;;;;;;;4.43;3.55;;;;;;;;;;4949301;28;20428;-78
2023/05/26 05:51:33;;;;;;;3.33;3.13;;;;;;;;;;4946139;28;20049;-78
2023/05/26 05:54:00;;;;;;;3.88;3.35;;;;;;;;;;4963647;28;20097;-78
2023/05/26 05:56:29;;;;;;;4.78;3.40;;;;;;;;;;4961945;28;20306;-78
2023/05/26 05:58:57;;;;;;;3.60;3.30;;;;;;;;;;4948506;28;20045;-78
2023/05/26 06:01:25;;;;;;;3.72;3.42;;;;;;;;;;4956058;28;20054;-78
2023/05/26 06:03:53;;;;;;;3.90;3.05;;;;;;;;;;4950024;28;20039;-78
2023/05/26 06:06:22;;;;;;;3.45;3.25;;;;;;;;;;4963185;28;20055;-77
2023/05/26 06:08:49;;;;;;;3.50;3.20;;;;;;;;;;4971998;28;20055;-78
2023/05/26 06:11:17;;;;;;;3.83;3.40;;;;;;;;;;4965529;28;20429;-78
2023/05/26 06:13:45;;;;;;;3.92;2.95;;;;;;;;;;4949069;28;20051;-77
2023/05/26 06:16:13;;;;;;;3.95;3.65;;;;;;;;;;4955829;28;20063;-77
2023/05/26 06:18:41;;;;;;;3.47;3.17;;;;;;;;;;4950206;28;20047;-77
2023/05/26 06:21:09;;;;;;;3.15;2.90;;;;;;;;;;4954079;28;20042;-77
2023/05/26 06:23:38;;;;;;;2.63;2.50;;;;;;;;;;4963885;28;20481;-76
2023/05/26 06:26:06;;;;;;;3.70;3.00;;;;;;;;;;4973444;28;20043;-77
2023/05/26 06:28:34;;;;;;;5.93;2.78;;;;;;;;;;4966772;28;20074;-77
2023/05/26 06:31:03;;;;;;;3.20;2.70;;;;;;;;;;4946795;28;20244;-77
2023/05/26 06:33:38;;;;;;;2.78;2.58;;;;;;;;;;4935207;28;20047;-78
2023/05/26 06:36:05;;;;;;;2.63;2.50;;;;;;;;;;4926712;29;20058;-77
2023/05/26 06:38:33;;;;;;;3.42;3.13;;;;;;;;;;4948149;28;20066;-77
2023/05/26 06:41:06;;;;;;;2.83;2.53;;;;;;;;;;4942932;28;20047;-77
2023/05/26 06:43:35;;;;;;;2.50;2.30;;;;;;;;;;4942155;28;20524;-77
2023/05/26 06:46:05;;;;;;;2.50;2.30;;;;;;;;;;4944241;28;20421;-77
2023/05/26 06:48:35;;;;;;;2.45;2.25;;;;;;;;;;4941310;28;20069;-77
2023/05/26 06:51:15;;;;;;;2.05;1.95;;;;;;;;;;4947863;28;20050;-77
2023/05/26 06:53:46;;;;;;;;;;;;;;;;;;4958643;28;20051;-77
2023/05/26 06:56:14;;;;;;;2.47;2.28;;;;;;;;;;4946587;28;19958;-77
2023/05/26 06:58:42;;;;;;;2.45;2.25;;;;;;;;;;4947020;28;20056;-78
2023/05/26 07:01:09;;;;;;;2.50;2.30;;;;;;;;;;4938561;28;20047;-77
2023/05/26 07:03:39;;;;;;;2.38;2.17;;;;;;;;;;4955565;28;20043;-77
2023/05/26 07:06:07;;;;;;;2.85;2.45;;;;;;;;;;4957859;28;20058;-77
2023/05/26 07:08:38;;;;;;;2.50;2.30;;;;;;;;;;4947101;28;20077;-77
2023/05/26 07:11:26;;;;;;;2.70;2.50;;;;;;;;;;4938728;28;20432;-77
2023/05/26 07:13:57;;;;;;;2.95;2.33;;;;;;;;;;4944591;28;20071;-77
2023/05/26 07:16:25;;;;;;;2.28;2.08;;;;;;;;;;4962337;28;20048;-77
2023/05/26 07:18:53;;;;;;;2.55;2.33;;;;;;;;;;4948623;28;20472;-78
2023/05/26 07:21:22;;;;;;;2.97;2.30;;;;;;;;;;4966835;28;20055;-77
2023/05/26 07:23:50;;;;;;;2.70;2.50;;;;;;;;;;4946449;28;20047;-77
2023/05/26 07:26:19;;;;;;;3.42;2.63;;;;;;;;;;4947801;28;20055;-78
2023/05/26 07:28:48;;;;;;;2.50;2.30;;;;;;;;;;4944196;28;20050;-78
2023/05/26 07:31:16;;;;;;;2.58;2.38;;;;;;;;;;4935618;28;20383;-78
2023/05/26 07:33:44;;;;;;;2.70;2.25;;;;;;;;;;4939914;28;20050;-78
2023/05/26 07:36:14;;;;;;;2.50;2.30;;;;;;;;;;4944275;28;20429;-77
2023/05/26 07:38:45;;;;;;;2.30;2.20;;;;;;;;;;4941266;28;20275;-77
2023/05/26 07:41:42;;;;;;;3.72;2.53;;;;;;;;;;4942846;28;20047;-77
2023/05/26 07:44:09;;;;;;;2.17;2.08;;;;;;;;;;4936392;28;20390;-76
2023/05/26 07:46:38;;;;;;;3.33;2.50;;;;;;;;;;4939316;28;20055;-76
2023/05/26 07:49:05;;;;;;;3.72;2.47;;;;;;;;;;4945114;28;20046;-76
2023/05/26 07:51:35;;;;;;;2.45;2.25;;;;;;;;;;4944880;28;20421;-78
2023/05/26 07:54:06;;;;;;;2.80;2.60;;;;;;;;;;4946857;28;20089;-78
2023/05/26 07:56:37;;;;;;;3.97;2.38;;;;;;;;;;4942088;28;20059;-78
2023/05/26 07:59:05;;;;;;;2.17;2.00;;;;;;;;;;4945379;28;20059;-77
2023/05/26 08:01:33;;;;;;;2.80;2.60;;;;;;;;;;4939875;28;20054;-77
2023/05/26 08:04:00;;;;;;;3.70;2.90;;;;;;;;;;4945049;28;20051;-77
2023/05/26 08:06:31;;;;;;;2.83;2.20;;;;;;;;;;4950026;28;20058;-78
2023/05/26 08:08:59;;;;;;;2.60;2.40;;;;;;;;;;4942070;28;20441;-78
2023/05/26 08:11:36;;;;;;;4.65;2.47;;;;;;;;;;4944597;28;20532;-77
2023/05/26 08:14:04;;;;;;;2.40;2.20;;;;;;;;;;4943006;28;20049;-77
2023/05/26 08:16:31;;;;;;;2.10;2.00;;;;;;;;;;4939329;28;20058;-78
2023/05/26 08:19:00;;;;;;;2.45;2.25;;;;;;;;;;4944372;28;20469;-76
2023/05/26 08:21:27;;;;;;;2.30;2.10;;;;;;;;;;4944761;28;20054;-76
2023/05/26 08:23:55;;;;;;;2.45;2.25;;;;;;;;;;4939730;28;20051;-77
2023/05/26 08:26:22;;;;;;;2.42;2.20;;;;;;;;;;4947020;28;20052;-77
2023/05/26 08:28:50;;;;;;;2.92;2.67;;;;;;;;;;4943030;28;20098;-78
2023/05/26 08:31:18;;;;;;;2.80;2.60;;;;;;;;;;4944177;28;20130;-76
2023/05/26 08:33:46;;;;;;;2.40;2.20;;;;;;;;;;4947704;28;20083;-77
2023/05/26 08:36:14;;;;;;;3.83;2.38;;;;;;;;;;4943438;28;20035;-76
2023/05/26 08:38:41;;;;;;;2.70;2.50;;;;;;;;;;4940746;28;20115;-79
2023/05/26 08:41:10;;;;;;;2.83;2.63;;;;;;;;;;4941066;28;20109;-78
2023/05/26 08:43:45;;;;;;;2.40;2.30;;;;;;;;;;4941000;28;20466;-78
2023/05/26 08:46:23;;;;;;;2.00;1.90;;;;;;;;;;4944323;28;20058;-77
2023/05/26 08:48:54;;;;;;;2.80;2.60;;;;;;;;;;4946737;28;20061;-77
2023/05/26 08:51:22;;;;;;;3.17;2.47;;;;;;;;;;4947944;28;20048;-77
2023/05/26 08:53:50;;;;;;;2.25;2.10;;;;;;;;;;4949199;28;20524;-77
2023/05/26 08:56:21;;;;;;;2.45;2.25;;;;;;;;;;4949671;28;20039;-77
2023/05/26 08:58:50;;;;;;;2.30;2.10;;;;;;;;;;4949050;28;20047;-77
2023/05/26 09:01:17;;;;;;;2.05;1.95;;;;;;;;;;4940552;28;20056;-77
2023/05/26 09:03:45;;;;;;;2.63;2.42;;;;;;;;;;4941505;28;20051;-78
2023/05/26 09:06:13;;;;;;;2.38;2.17;;;;;;;;;;4944821;28;20130;-76
2023/05/26 09:08:40;;;;;;;2.40;2.20;;;;;;;;;;4945592;28;20485;-77
2023/05/26 09:11:21;;;;;;;1.92;1.83;;;;;;;;;;4944782;29;20106;-77
2023/05/26 09:13:52;;;;;;;2.30;2.10;;;;;;;;;;4958517;23;20042;-84
2023/05/26 09:16:24;;;;;;;2.03;1.92;;;;;;;;;;4962079;28;20125;-83
2023/05/26 09:18:56;;;;;;;2.53;2.35;;;;;;;;;;4975165;28;20043;-85
2023/05/26 09:21:26;;;;;;;1.85;1.75;;;;;;;;;;4971054;28;20055;-84
2023/05/26 09:23:57;;;;;;;2.63;2.42;;;;;;;;;;4977101;28;20049;-84
2023/05/26 09:26:35;;;;;;;2.58;2.20;;;;;;;;;;4983984;28;20086;-85
2023/05/26 09:29:05;;;;;;;1.80;1.70;;;;;;;;;;4976610;28;20054;-84
2023/05/26 09:31:45;;;;;;;1.95;1.85;;;;;;;;;;4973110;28;20050;-84
2023/05/26 09:34:14;;;;;;;2.67;2.28;;;;;;;;;;4965108;28;20043;-84
2023/05/26 09:36:42;;;;;;;2.33;2.13;;;;;;;;;;4966339;28;20066;-83
2023/05/26 09:39:13;;;;;;;2.47;2.28;;;;;;;;;;4968389;28;20565;-84
2023/05/26 09:41:42;;;;;;;2.13;2.03;;;;;;;;;;4970535;28;20046;-85
2023/05/26 09:44:32;;;;;;;2.67;2.28;;;;;;;;;;4969681;28;20046;-85
2023/05/26 09:46:59;;;;;;;1.95;1.85;;;;;;;;;;4969826;28;20111;-84
2023/05/26 09:49:27;;;;;;;2.30;2.05;;;;;;;;;;4964923;28;20078;-84
2023/05/26 09:51:54;;;;;;;2.05;1.92;;;;;;;;;;4975479;28;20040;-84
2023/05/26 09:54:39;;;;;;;2.58;2.38;;;;;;;;;;4967721;28;20051;-84
2023/05/26 09:57:12;;;;;;;2.72;2.40;;;;;;;;;;4982917;28;20053;-84
2023/05/26 09:59:43;;;;;;;2.63;2.42;;;;;;;;;;4986937;28;20072;-83
2023/05/26 10:02:21;;;;;;;2.78;2.35;;;;;;;;;;4991915;28;20070;-84
2023/05/26 10:04:51;;;;;;;3.50;1.98;;;;;;;;;;4994766;28;20572;-83
2023/05/26 10:07:20;;;;;;;2.20;2.10;;;;;;;;;;4995372;28;20038;-83
2023/05/26 10:09:54;;;;;;;2.60;2.15;;;;;;;;;;4994167;28;20064;-83
2023/05/26 10:12:25;;;;;;;2.33;2.13;;;;;;;;;;4997129;28;20117;-85
2023/05/26 10:14:53;;;;;;;1.83;1.73;;;;;;;;;;4998666;28;20077;-85
2023/05/26 10:17:25;;;;;;;2.30;2.10;;;;;;;;;;4991000;28;20050;-84
2023/05/26 10:19:54;;;;;;;1.95;1.85;;;;;;;;;;4993996;28;20065;-85
2023/05/26 10:22:38;;;;;;;2.33;2.08;;;;;;;;;;4990665;28;20875;-85
2023/05/26 10:25:15;;;;;;;3.45;2.20;;;;;;;;;;4998000;28;20714;-82
2023/05/26 10:27:46;;;;;;;3.05;2.10;;;;;;;;;;4998909;28;20050;-83
2023/05/26 10:30:17;;;;;;;2.10;2.00;;;;;;;;;;4998076;28;20627;-83
2023/05/26 10:32:46;;;;;;;2.37;2.17;;;;;;;;;;4993190;28;20042;-84
2023/05/26 10:35:21;;;;;;;4.75;2.33;;;;;;;;;;4995750;28;20324;-83
2023/05/26 10:37:56;;;;;;;2.60;2.40;;;;;;;;;;4983010;28;20142;-84
2023/05/26 10:40:42;;;;;;;2.33;2.13;;;;;;;;;;4993832;28;20150;-84
2023/05/26 10:43:10;;;;;;;2.40;2.20;;;;;;;;;;4977058;28;20047;-83
2023/05/26 10:45:42;;;;;;;2.10;2.00;;;;;;;;;;4968780;28;20055;-83
2023/05/26 10:48:10;;;;;;;2.35;1.92;;;;;;;;;;4968938;28;20057;-85
2023/05/26 10:50:58;;;;;;;2.30;2.10;;;;;;;;;;4971029;28;20062;-83
2023/05/26 10:53:26;;;;;;;2.05;1.85;;;;;;;;;;4986215;28;20525;-84
2023/05/26 10:55:55;;;;;;;2.60;2.40;;;;;;;;;;4994890;28;20427;-84
2023/05/26 10:58:29;;;;;;;2.42;2.22;;;;;;;;;;4991275;28;20065;-84
2023/05/26 11:01:03;;;;;;;2.05;1.95;;;;;;;;;;4987619;28;20047;-85
2023/05/26 11:03:32;;;;;;;2.22;2.03;;;;;;;;;;4989337;28;20046;-84
2023/05/26 11:06:00;;;;;;;2.20;2.10;;;;;;;;;;5005120;28;20054;-84
2023/05/26 11:08:32;;;;;;;2.40;2.15;;;;;;;;;;5002550;28;20085;-83
2023/05/26 11:11:04;;;;;;;2.50;2.30;;;;;;;;;;4992608;28;20157;-84
2023/05/26 11:13:42;;;;;;;3.40;2.40;;;;;;;;;;4981847;28;20061;-83
2023/05/26 11:16:25;;;;;;;2.70;2.30;;;;;;;;;;4974291;28;20050;-85
2023/05/26 11:18:53;;;;;;;3.05;2.30;;;;;;;;;;4984323;28;20051;-85
2023/05/26 11:21:25;;;;;;;2.30;2.10;;;;;;;;;;4988535;28;20070;-84
2023/05/26 11:23:53;;;;;;;2.10;2.00;;;;;;;;;;4985449;28;20061;-84
2023/05/26 11:26:22;;;;;;;2.70;2.45;;;;;;;;;;4984403;28;20078;-84
2023/05/26 11:28:49;;;;;;;2.25;2.13;;;;;;;;;;4980117;28;20051;-85
2023/05/26 11:31:18;;;;;;;2.60;2.40;;;;;;;;;;4979614;28;20047;-85
2023/05/26 11:33:47;;;;;;;6.28;2.33;;;;;;;;;;4972150;28;20054;-83
2023/05/26 11:36:15;;;;;;;2.30;2.20;;;;;;;;;;4979302;28;20046;-85
2023/05/26 11:38:43;;;;;;;2.50;2.30;;;;;;;;;;4975850;28;20075;-85
2023/05/26 11:41:11;;;;;;;3.28;2.05;;;;;;;;;;4970043;28;20097;-86
2023/05/26 11:43:39;;;;;;;2.35;2.17;;;;;;;;;;4975182;28;20058;-85
2023/05/26 11:46:09;;;;;;;2.40;2.20;;;;;;;;;;4972365;28;20114;-83
2023/05/26 11:48:39;;;;;;;2.42;2.22;;;;;;;;;;4971644;28;20054;-85
2023/05/26 11:51:09;;;;;;;2.80;2.63;;;;;;;;;;4963374;28;20043;-84
2023/05/26 11:53:37;;;;;;;3.13;2.87;;;;;;;;;;4968114;28;20509;-83
2023/05/26 11:56:10;;;;;;;2.70;2.50;;;;;;;;;;4975220;28;20071;-86
2023/05/26 11:58:42;;;;;;;2.80;2.58;;;;;;;;;;4983241;28;20077;-83
2023/05/26 12:01:10;;;;;;;2.35;2.13;;;;;;;;;;4991494;28;20082;-84
2023/05/26 12:03:46;;;;;;;2.10;2.00;;;;;;;;;;4976838;28;20057;-85
2023/05/26 12:06:24;;;;;;;2.38;2.28;;;;;;;;;;4970677;28;20053;-83
2023/05/26 12:08:59;;;;;;;3.05;2.60;;;;;;;;;;4972538;28;20059;-84
2023/05/26 12:11:30;;;;;;;2.45;2.25;;;;;;;;;;4974839;28;20062;-83
2023/05/26 12:14:04;;;;;;;2.20;2.00;;;;;;;;;;4967449;28;20559;-84
2023/05/26 12:16:58;;;;;;;2.40;2.20;;;;;;;;;;4965639;28;20083;-84
2023/05/26 12:19:26;;;;;;;2.22;2.03;;;;;;;;;;4971952;28;20065;-84
2023/05/26 12:21:59;;;;;;;1.70;1.60;;;;;;;;;;4989397;28;20054;-84
2023/05/26 12:24:32;;;;;;;2.00;1.90;;;;;;;;;;4987997;28;20101;-85
2023/05/26 12:27:06;;;;;;;2.17;2.08;;;;;;;;;;4977416;28;20816;-83
2023/05/26 12:29:37;;;;;;;2.08;1.98;;;;;;;;;;4974098;28;20059;-85
2023/05/26 12:32:06;;;;;;;1.90;1.80;;;;;;;;;;4977797;28;20043;-85
2023/05/26 12:34:34;;;;;;;2.70;2.17;;;;;;;;;;4978611;28;20137;-85
2023/05/26 12:37:01;;;;;;;2.40;2.20;;;;;;;;;;4979601;28;20436;-85
2023/05/26 12:39:29;;;;;;;2.75;2.30;;;;;;;;;;4971997;28;20074;-85
2023/05/26 12:41:56;;;;;;;2.42;2.22;;;;;;;;;;4962794;28;20059;-85
2023/05/26 12:44:23;;;;;;;2.38;2.17;;;;;;;;;;4963155;28;20133;-85
2023/05/26 12:46:51;;;;;;;2.88;2.30;;;;;;;;;;4985751;28;20054;-85
2023/05/26 12:49:18;;;;;;;2.83;2.55;;;;;;;;;;4991789;28;20569;-84
2023/05/26 12:51:47;;;;;;;2.10;1.90;;;;;;;;;;4972983;28;20047;-84
2023/05/26 12:54:14;;;;;;;2.45;1.90;;;;;;;;;;4963093;28;20766;-85
2023/05/26 12:56:42;;;;;;;2.10;2.00;;;;;;;;;;4962381;28;20047;-84
2023/05/26 12:59:10;;;;;;;2.25;2.10;;;;;;;;;;4971139;28;20042;-84
2023/05/26 13:01:47;;;;;;;2.50;2.30;;;;;;;;;;4964483;28;20057;-83
2023/05/26 13:04:18;;;;;;;2.08;1.98;;;;;;;;;;4967285;28;20047;-86
2023/05/26 13:06:49;;;;;;;2.10;2.00;;;;;;;;;;4965343;28;20177;-86
2023/05/26 13:09:17;;;;;;;2.10;1.90;;;;;;;;;;4966634;28;20055;-85
2023/05/26 13:11:44;;;;;;;2.10;2.00;;;;;;;;;;4965897;28;20150;-85
2023/05/26 13:14:12;;;;;;;2.40;2.20;;;;;;;;;;4964085;28;20539;-85
2023/05/26 13:16:39;;;;;;;1.77;1.67;;;;;;;;;;4966119;28;20034;-86
2023/05/26 13:19:08;;;;;;;2.20;2.10;;;;;;;;;;4968867;28;20049;-82
2023/05/26 13:21:35;;;;;;;1.95;1.85;;;;;;;;;;4973843;28;20055;-84
2023/05/26 13:24:03;;;;;;;2.28;1.88;;;;;;;;;;4967726;28;20130;-84
2023/05/26 13:26:31;;;;;;;2.10;1.77;;;;;;;;;;4959501;28;20061;-84
2023/05/26 13:28:58;;;;;;;2.30;2.20;;;;;;;;;;4954970;28;20075;-85
2023/05/26 13:31:26;;;;;;;2.40;2.30;;;;;;;;;;4965840;28;20050;-87
2023/05/26 13:33:53;;;;;;;2.28;2.17;;;;;;;;;;4962141;28;20050;-84
2023/05/26 13:36:21;;;;;;;1.98;1.85;;;;;;;;;;4967482;28;20106;-84
2023/05/26 13:38:49;;;;;;;2.35;2.15;;;;;;;;;;4968053;28;20043;-83
2023/05/26 13:41:20;;;;;;;2.00;1.83;;;;;;;;;;4964557;28;20050;-85
2023/05/26 13:43:47;;;;;;;1.80;1.70;;;;;;;;;;4966026;28;20473;-86
2023/05/26 13:46:15;;;;;;;2.38;2.17;;;;;;;;;;4968101;28;20489;-84
2023/05/26 13:48:43;;;;;;;2.40;2.22;;;;;;;;;;4968324;28;20105;-82
2023/05/26 13:51:10;;;;;;;1.70;1.60;;;;;;;;;;4965178;28;20043;-84
2023/05/26 13:53:39;;;;;;;1.90;1.80;;;;;;;;;;4957134;28;20480;-86
2023/05/26 13:56:07;;;;;;;2.15;2.00;;;;;;;;;;4966232;28;20074;-83
2023/05/26 13:58:52;;;;;;;2.05;1.95;;;;;;;;;;4962392;28;20052;-85
2023/05/26 14:01:22;;;;;;;2.63;2.30;;;;;;;;;;4966440;28;20057;-84
2023/05/26 14:04:03;;;;;;;1.80;1.70;;;;;;;;;;4960548;28;20055;-84
2023/05/26 14:06:34;;;;;;;3.78;2.20;;;;;;;;;;4964951;28;20062;-84
2023/05/26 14:09:04;;;;;;;2.00;1.90;;;;;;;;;;4967133;28;20074;-85
2023/05/26 14:11:31;;;;;;;2.15;2.05;;;;;;;;;;4966856;28;20051;-85
2023/05/26 14:13:59;;;;;;;2.38;2.17;;;;;;;;;;4965024;28;20043;-85
2023/05/26 14:16:26;;;;;;;1.70;1.60;;;;;;;;;;4962711;28;20141;-85
2023/05/26 14:18:54;;;;;;;1.55;1.48;;;;;;;;;;4964838;28;20449;-84
2023/05/26 14:21:33;;;;;;;1.67;1.60;;;;;;;;;;4962939;28;20053;-85
2023/05/26 14:24:21;;;;;;;1.98;1.88;;;;;;;;;;4962924;28;20119;-84
2023/05/26 14:26:48;;;;;;;2.05;1.95;;;;;;;;;;4971697;28;20053;-84
2023/05/26 14:29:17;;;;;;;1.90;1.80;;;;;;;;;;4969283;28;20066;-83
2023/05/26 14:31:45;;;;;;;2.10;2.00;;;;;;;;;;4970255;28;20042;-85
2023/05/26 14:34:13;;;;;;;2.15;1.83;;;;;;;;;;4980820;28;20051;-85
2023/05/26 14:36:47;;;;;;;2.30;2.10;;;;;;;;;;4968213;28;20110;-87
2023/05/26 14:39:18;;;;;;;1.90;1.80;;;;;;;;;;4969710;28;20117;-87
2023/05/26 14:41:54;;;;;;;1.55;1.45;;;;;;;;;;4966533;28;20724;-86
2023/05/26 14:45:01;;;;;;;1.40;1.40;;;;;;;;;;4967855;28;20062;-85
2023/05/26 14:47:29;;;;;;;1.75;1.65;;;;;;;;;;4963535;28;20793;-88
2023/05/26 14:50:02;;;;;;;1.85;1.75;;;;;;;;;;4969042;28;20070;-86
2023/05/26 14:52:30;;;;;;;2.03;1.92;;;;;;;;;;4958304;28;20523;-85
2023/05/26 14:54:59;;;;;;;2.92;2.05;;;;;;;;;;4962834;28;20153;-82
2023/05/26 14:57:26;;;;;;;2.83;2.15;;;;;;;;;;4963327;28;20405;-85
2023/05/26 14:59:54;;;;;;;2.42;2.10;;;;;;;;;;4966419;28;20047;-84
2023/05/26 15:02:23;;;;;;;1.83;1.73;;;;;;;;;;4967710;28;20042;-84